createdAt,value
2018-10-16T00:01:33.666Z,8.07
2018-10-16T00:04:03.028Z,7.67
2018-10-16T00:06:32.434Z,8.17
2018-10-16T00:09:01.454Z,8.10
2018-10-16T00:11:30.764Z,8.13
2018-10-16T00:14:00.159Z,8.03
2018-10-16T00:16:29.460Z,8.13
2018-10-16T00:18:58.742Z,8.20
2018-10-16T00:21:28.107Z,9.77
2018-10-16T00:23:57.357Z,8.43
2018-10-16T00:26:26.673Z,8.37
2018-10-16T00:28:55.989Z,8.37
2018-10-16T00:31:25.028Z,8.93
2018-10-16T00:33:54.118Z,9.07
2018-10-16T00:36:23.293Z,8.20
2018-10-16T00:38:52.428Z,7.60
2018-10-16T00:41:21.601Z,7.47
2018-10-16T00:43:50.998Z,8.70
2018-10-16T00:46:20.311Z,9.67
2018-10-16T00:48:49.699Z,9.73
2018-10-16T00:51:19.131Z,10.07
2018-10-16T00:53:48.188Z,10.87
2018-10-16T00:56:17.390Z,10.37
2018-10-16T00:58:46.741Z,9.53
2018-10-16T01:01:20.269Z,7.37
2018-10-16T01:03:49.609Z,7.57
2018-10-16T01:06:18.693Z,7.40
2018-10-16T01:08:48.117Z,7.03
2018-10-16T01:11:17.605Z,6.97
2018-10-16T01:13:46.696Z,8.87
2018-10-16T01:16:15.901Z,7.43
2018-10-16T01:18:45.117Z,7.53
2018-10-16T01:21:14.201Z,10.83
2018-10-16T01:23:43.392Z,18.37
2018-10-16T01:26:12.545Z,15.33
2018-10-16T01:28:41.673Z,11.23
2018-10-16T01:31:10.769Z,12.03
2018-10-16T01:33:40.709Z,11.20
2018-10-16T01:36:11.209Z,11.80
2018-10-16T01:38:40.469Z,10.47
2018-10-16T01:43:45.232Z,10.60
2018-10-16T01:46:14.515Z,7.33
2018-10-16T01:48:43.854Z,7.47
2018-10-16T01:51:13.089Z,7.40
2018-10-16T01:53:42.169Z,7.23
2018-10-16T01:56:11.362Z,6.87
2018-10-16T01:58:40.800Z,7.67
2018-10-16T02:01:10.149Z,7.80
2018-10-16T02:03:41.582Z,7.47
2018-10-16T02:06:10.838Z,8.13
2018-10-16T02:08:40.025Z,7.73
2018-10-16T02:11:09.469Z,7.77
2018-10-16T02:13:38.591Z,7.67
2018-10-16T02:16:07.793Z,7.40
2018-10-16T02:18:37.313Z,8.97
2018-10-16T02:21:06.666Z,7.67
2018-10-16T02:23:35.869Z,7.47
2018-10-16T02:26:05.247Z,6.90
2018-10-16T02:28:34.617Z,7.63
2018-10-16T02:31:03.809Z,7.97
2018-10-16T02:33:32.957Z,7.60
2018-10-16T02:36:02.193Z,7.23
2018-10-16T02:38:31.414Z,8.20
2018-10-16T02:41:00.873Z,7.60
2018-10-16T02:43:29.994Z,7.50
2018-10-16T02:45:59.093Z,7.97
2018-10-16T02:48:28.271Z,8.27
2018-10-16T02:50:57.485Z,8.43
2018-10-16T02:53:26.684Z,8.03
2018-10-16T02:55:56.109Z,9.57
2018-10-16T02:58:25.280Z,9.03
2018-10-16T03:00:54.490Z,8.87
2018-10-16T03:03:23.701Z,8.67
2018-10-16T03:05:52.783Z,8.33
2018-10-16T03:08:22.097Z,8.57
2018-10-16T03:10:51.425Z,8.87
2018-10-16T03:13:20.689Z,9.50
2018-10-16T03:15:49.881Z,9.47
2018-10-16T03:18:19.198Z,9.63
2018-10-16T03:20:48.261Z,10.00
2018-10-16T03:23:17.463Z,10.47
2018-10-16T03:25:46.970Z,10.13
2018-10-16T03:28:16.265Z,9.50
2018-10-16T03:30:45.574Z,9.10
2018-10-16T03:33:14.937Z,8.57
2018-10-16T03:35:44.073Z,9.30
2018-10-16T03:38:13.266Z,8.50
2018-10-16T03:40:42.516Z,8.87
2018-10-16T03:43:11.680Z,8.80
2018-10-16T03:45:40.795Z,8.27
2018-10-16T03:48:10.514Z,9.30
2018-10-16T03:50:39.801Z,8.03
2018-10-16T03:53:08.925Z,8.30
2018-10-16T03:55:38.237Z,8.07
2018-10-16T03:58:07.312Z,7.90
2018-10-16T04:00:36.509Z,8.57
2018-10-16T04:03:06.288Z,8.20
2018-10-16T04:05:35.393Z,8.57
2018-10-16T04:08:04.561Z,8.00
2018-10-16T04:10:34.133Z,8.60
2018-10-16T04:13:03.381Z,8.47
2018-10-16T04:15:32.509Z,9.03
2018-10-16T04:18:01.981Z,9.47
2018-10-16T04:20:31.374Z,9.77
2018-10-16T04:23:00.714Z,8.90
2018-10-16T04:25:30.269Z,8.60
2018-10-16T04:27:59.605Z,9.90
2018-10-16T04:30:28.689Z,10.50
2018-10-16T04:32:58.316Z,9.53
2018-10-16T04:35:27.501Z,9.10
2018-10-16T04:37:56.596Z,9.17
2018-10-16T04:40:25.952Z,8.80
2018-10-16T04:42:55.097Z,10.00
2018-10-16T04:45:24.186Z,9.83
2018-10-16T04:47:53.353Z,11.13
2018-10-16T04:50:22.573Z,12.47
2018-10-16T04:52:51.665Z,11.90
2018-10-16T04:55:21.296Z,12.17
2018-10-16T04:57:50.590Z,13.43
2018-10-16T05:00:19.689Z,14.00
2018-10-16T05:02:49.254Z,11.77
2018-10-16T05:05:23.765Z,11.87
2018-10-16T05:07:53.408Z,12.73
2018-10-16T05:10:22.611Z,11.47
2018-10-16T05:12:52.205Z,12.00
2018-10-16T05:15:25.830Z,12.27
2018-10-16T05:17:55.110Z,9.60
2018-10-16T05:20:24.306Z,10.00
2018-10-16T05:22:54.121Z,9.47
2018-10-16T05:25:23.385Z,10.20
2018-10-16T05:27:55.801Z,10.10
2018-10-16T05:30:25.482Z,10.20
2018-10-16T05:32:55.396Z,9.37
2018-10-16T05:35:24.722Z,9.10
2018-10-16T05:37:54.034Z,9.00
2018-10-16T05:40:23.297Z,8.27
2018-10-16T05:42:52.621Z,8.20
2018-10-16T05:45:21.728Z,7.47
2018-10-16T05:47:50.873Z,7.77
2018-10-16T05:50:20.097Z,6.83
2018-10-16T05:52:49.397Z,7.77
2018-10-16T05:55:19.201Z,6.87
2018-10-16T05:57:48.451Z,7.20
2018-10-16T06:00:36.657Z,7.17
2018-10-16T06:03:06.149Z,6.90
2018-10-16T06:05:35.294Z,6.47
2018-10-16T06:08:04.865Z,7.23
2018-10-16T06:10:34.178Z,7.77
2018-10-16T06:13:03.461Z,7.83
2018-10-16T06:15:32.989Z,8.53
2018-10-16T06:18:02.293Z,7.90
2018-10-16T06:20:31.355Z,8.00
2018-10-16T06:23:00.590Z,7.77
2018-10-16T06:25:29.958Z,9.10
2018-10-16T06:27:59.449Z,8.63
2018-10-16T06:30:28.607Z,7.87
2018-10-16T06:32:57.793Z,11.67
2018-10-16T06:35:26.957Z,9.10
2018-10-16T06:37:56.118Z,8.80
2018-10-16T06:40:25.474Z,8.60
2018-10-16T06:42:54.843Z,8.30
2018-10-16T06:45:24.428Z,8.57
2018-10-16T06:47:53.829Z,8.23
2018-10-16T06:50:23.265Z,7.80
2018-10-16T06:52:52.877Z,7.10
2018-10-16T06:55:22.090Z,6.90
2018-10-16T06:57:51.074Z,7.80
2018-10-16T07:00:20.461Z,5.93
2018-10-16T07:02:49.862Z,6.20
2018-10-16T07:05:19.159Z,6.10
2018-10-16T07:07:48.781Z,5.23
2018-10-16T07:10:17.982Z,7.60
2018-10-16T07:12:47.182Z,10.00
2018-10-16T07:15:16.418Z,14.90
2018-10-16T07:17:45.660Z,18.43
2018-10-16T07:20:15.182Z,20.00
2018-10-16T07:22:44.821Z,13.10
2018-10-16T07:25:14.085Z,8.23
2018-10-16T07:27:43.180Z,7.63
2018-10-16T07:30:14.537Z,7.37
2018-10-16T07:32:43.820Z,8.40
2018-10-16T07:35:13.038Z,7.33
2018-10-16T07:37:42.460Z,6.83
2018-10-16T07:40:12.227Z,6.70
2018-10-16T07:42:41.646Z,6.93
2018-10-16T07:45:10.981Z,6.97
2018-10-16T07:47:40.149Z,8.07
2018-10-16T07:50:10.948Z,8.40
2018-10-16T07:52:40.596Z,8.80
2018-10-16T07:55:12.633Z,9.47
2018-10-16T07:57:42.210Z,10.57
2018-10-16T08:00:12.833Z,9.20
2018-10-16T08:02:43.309Z,8.70
2018-10-16T08:05:12.773Z,7.50
2018-10-16T08:07:42.301Z,8.40
2018-10-16T08:10:13.269Z,8.33
2018-10-16T08:12:43.170Z,8.07
2018-10-16T08:15:12.442Z,6.67
2018-10-16T08:17:42.275Z,7.43
2018-10-16T08:20:11.586Z,7.20
2018-10-16T08:22:40.793Z,8.43
2018-10-16T08:25:10.025Z,7.33
2018-10-16T08:27:39.198Z,8.30
2018-10-16T08:30:09.546Z,8.47
2018-10-16T08:32:38.801Z,8.23
2018-10-16T08:35:07.954Z,14.40
2018-10-16T08:39:49.505Z,9.33
2018-10-16T08:42:42.353Z,8.33
2018-10-16T08:45:23.437Z,8.30
2018-10-16T08:48:03.481Z,8.27
2018-10-16T08:50:45.281Z,7.33
2018-10-16T08:53:15.082Z,8.53
2018-10-16T08:55:44.702Z,7.73
2018-10-16T08:58:13.981Z,7.67
2018-10-16T09:00:43.105Z,8.37
2018-10-16T09:03:12.299Z,9.63
2018-10-16T09:05:41.473Z,10.53
2018-10-16T09:08:10.681Z,8.83
2018-10-16T09:10:39.981Z,8.40
2018-10-16T09:13:09.394Z,8.07
2018-10-16T09:15:38.794Z,8.23
2018-10-16T09:18:07.885Z,7.13
2018-10-16T09:20:37.151Z,7.57
2018-10-16T09:23:06.189Z,6.63
2018-10-16T09:25:35.385Z,5.93
2018-10-16T09:28:05.033Z,5.30
2018-10-16T09:30:34.242Z,4.97
2018-10-16T09:33:03.470Z,5.30
2018-10-16T09:35:32.826Z,4.63
2018-10-16T09:38:01.993Z,5.30
2018-10-16T09:40:31.586Z,5.23
2018-10-16T09:43:01.369Z,4.90
2018-10-16T09:45:30.484Z,5.20
2018-10-16T09:47:59.805Z,5.70
2018-10-16T09:50:31.441Z,3.73
2018-10-16T09:53:00.649Z,4.53
2018-10-16T09:55:29.754Z,5.23
2018-10-16T09:57:58.993Z,4.17
2018-10-16T10:00:33.310Z,3.70
2018-10-16T10:03:03.710Z,4.00
2018-10-16T10:05:32.977Z,3.30
2018-10-16T10:08:02.501Z,3.70
2018-10-16T10:10:31.693Z,3.97
2018-10-16T10:13:01.038Z,6.30
2018-10-16T10:15:30.375Z,3.60
2018-10-16T10:17:59.493Z,3.03
2018-10-16T10:20:28.573Z,2.90
2018-10-16T10:22:57.985Z,2.97
2018-10-16T10:25:27.286Z,2.57
2018-10-16T10:27:56.525Z,2.87
2018-10-16T10:30:26.119Z,2.87
2018-10-16T10:32:55.189Z,2.60
2018-10-16T10:35:24.537Z,4.83
2018-10-16T10:37:54.297Z,2.93
2018-10-16T10:40:23.481Z,2.73
2018-10-16T10:42:52.591Z,2.30
2018-10-16T10:45:21.941Z,2.73
2018-10-16T10:47:51.278Z,2.37
2018-10-16T10:50:20.574Z,2.27
2018-10-16T10:52:50.098Z,2.90
2018-10-16T10:55:19.278Z,2.50
2018-10-16T10:57:48.481Z,2.10
2018-10-16T11:00:17.861Z,2.53
2018-10-16T11:02:48.773Z,2.50
2018-10-16T11:05:17.997Z,2.07
2018-10-16T11:07:47.113Z,3.20
2018-10-16T11:10:16.521Z,2.70
2018-10-16T11:12:45.849Z,2.63
2018-10-16T11:15:15.150Z,2.97
2018-10-16T11:17:44.439Z,4.93
2018-10-16T11:20:14.152Z,3.27
2018-10-16T11:22:43.323Z,4.27
2018-10-16T11:25:12.703Z,2.83
2018-10-16T11:27:42.289Z,5.23
2018-10-16T11:30:14.412Z,3.87
2018-10-16T11:32:43.929Z,2.13
2018-10-16T11:35:14.189Z,2.33
2018-10-16T11:37:43.905Z,2.43
2018-10-16T11:40:13.237Z,2.93
2018-10-16T11:42:42.913Z,2.40
2018-10-16T11:45:12.390Z,2.30
2018-10-16T11:47:41.857Z,2.53
2018-10-16T11:50:11.809Z,2.27
2018-10-16T11:52:41.569Z,3.27
2018-10-16T11:55:11.165Z,2.40
2018-10-16T11:57:40.396Z,4.10
2018-10-16T12:00:13.289Z,2.40
2018-10-16T12:02:42.445Z,2.00
2018-10-16T12:05:13.573Z,3.40
2018-10-16T12:07:42.889Z,2.33
2018-10-16T12:10:12.181Z,3.03
2018-10-16T12:12:41.538Z,2.27
2018-10-16T12:15:10.701Z,2.50
2018-10-16T12:17:50.028Z,2.37
2018-10-16T12:20:26.086Z,2.80
2018-10-16T12:22:55.694Z,2.50
2018-10-16T12:25:24.978Z,2.00
2018-10-16T12:27:54.177Z,2.10
2018-10-16T12:30:23.674Z,5.97
2018-10-16T12:32:52.813Z,2.70
2018-10-16T12:35:22.182Z,3.03
2018-10-16T12:37:51.602Z,2.37
2018-10-16T12:40:20.790Z,2.20
2018-10-16T12:42:50.164Z,3.40
2018-10-16T12:45:19.746Z,3.20
2018-10-16T12:47:48.986Z,2.30
2018-10-16T12:50:18.219Z,2.27
2018-10-16T12:52:47.750Z,2.23
2018-10-16T12:55:17.021Z,2.50
2018-10-16T12:57:46.317Z,3.57
2018-10-16T13:00:15.798Z,5.33
2018-10-16T13:02:45.089Z,5.63
2018-10-16T13:05:14.472Z,4.57
2018-10-16T13:07:44.061Z,6.83
2018-10-16T13:10:15.710Z,6.77
2018-10-16T13:12:45.683Z,8.33
2018-10-16T13:15:15.667Z,6.70
2018-10-16T13:17:44.793Z,6.07
2018-10-16T13:20:15.032Z,5.50
2018-10-16T13:22:45.806Z,6.17
2018-10-16T13:25:15.865Z,4.20
2018-10-16T13:27:45.034Z,3.83
2018-10-16T13:30:16.829Z,4.20
2018-10-16T13:32:46.697Z,2.87
2018-10-16T13:35:17.298Z,9.87
2018-10-16T13:37:46.936Z,2.30
2018-10-16T13:40:16.334Z,4.17
2018-10-16T13:42:46.139Z,3.93
2018-10-16T13:45:16.401Z,4.10
2018-10-16T13:47:45.913Z,2.87
2018-10-16T13:50:16.136Z,3.97
2018-10-16T13:52:46.069Z,3.17
2018-10-16T13:55:15.346Z,3.77
2018-10-16T13:57:44.553Z,3.00
2018-10-16T14:00:19.512Z,3.67
2018-10-16T14:02:49.971Z,3.00
2018-10-16T14:05:19.272Z,3.33
2018-10-16T14:07:48.641Z,4.07
2018-10-16T14:10:18.185Z,5.87
2018-10-16T14:12:48.100Z,12.77
2018-10-16T14:15:17.937Z,16.77
2018-10-16T14:17:47.050Z,22.83
2018-10-16T14:20:16.262Z,22.50
2018-10-16T14:22:45.681Z,15.03
2018-10-16T14:25:15.729Z,29.40
2018-10-16T14:27:44.953Z,8.33
2018-10-16T14:30:15.483Z,7.27
2018-10-16T14:32:44.782Z,11.93
2018-10-16T14:35:14.177Z,8.93
2018-10-16T14:37:44.310Z,8.00
2018-10-16T14:40:14.892Z,7.40
2018-10-16T14:42:44.711Z,9.43
2018-10-16T14:45:14.406Z,12.03
2018-10-16T14:47:45.128Z,14.53
2018-10-16T14:50:15.170Z,12.30
2018-10-16T14:52:45.054Z,13.53
2018-10-16T14:55:14.189Z,16.00
2018-10-16T14:57:43.378Z,27.67
2018-10-16T15:00:13.758Z,17.33
2018-10-16T15:02:43.005Z,16.73
2018-10-16T15:05:12.607Z,13.97
2018-10-16T15:07:42.146Z,11.07
2018-10-16T15:10:11.370Z,19.77
2018-10-16T15:12:40.753Z,12.37
2018-10-16T15:15:10.629Z,8.60
2018-10-16T15:17:39.854Z,8.40
2018-10-16T15:20:10.320Z,8.50
2018-10-16T15:22:39.849Z,7.73
2018-10-16T15:25:09.834Z,8.33
2018-10-16T15:27:39.045Z,7.70
2018-10-16T15:30:09.425Z,7.40
2018-10-16T15:32:38.661Z,9.07
2018-10-16T15:35:09.202Z,17.93
2018-10-16T15:37:38.498Z,8.83
2018-10-16T15:40:09.083Z,9.00
2018-10-16T15:42:38.421Z,9.33
2018-10-16T15:45:09.398Z,12.90
2018-10-16T15:47:38.856Z,9.93
2018-10-16T15:50:08.847Z,7.93
2018-10-16T15:52:38.236Z,8.77
2018-10-16T15:55:08.258Z,8.17
2018-10-16T15:57:37.559Z,5.87
2018-10-16T16:00:11.940Z,6.30
2018-10-16T16:02:41.629Z,6.50
2018-10-16T16:05:10.846Z,7.20
2018-10-16T16:07:39.929Z,8.67
2018-10-16T16:10:11.319Z,8.20
2018-10-16T16:12:40.744Z,7.40
2018-10-16T16:15:11.528Z,8.90
2018-10-16T16:17:40.917Z,7.27
2018-10-16T16:20:12.554Z,6.03
2018-10-16T16:22:41.933Z,5.20
2018-10-16T16:25:12.531Z,4.90
2018-10-16T16:27:41.754Z,4.87
2018-10-16T16:30:14.345Z,4.60
2018-10-16T16:32:43.957Z,6.60
2018-10-16T16:35:13.360Z,6.80
2018-10-16T16:37:42.998Z,6.47
2018-10-16T16:40:13.576Z,6.53
2018-10-16T16:42:43.047Z,6.60
2018-10-16T16:45:12.741Z,6.67
2018-10-16T16:47:43.846Z,7.40
2018-10-16T16:50:13.298Z,7.00
2018-10-16T16:52:43.161Z,7.90
2018-10-16T16:55:13.633Z,7.27
2018-10-16T16:57:43.106Z,7.47
2018-10-16T17:00:13.874Z,8.77
2018-10-16T17:02:44.706Z,13.83
2018-10-16T17:05:14.582Z,14.60
2018-10-16T17:07:44.190Z,18.43
2018-10-16T17:10:13.428Z,20.30
2018-10-16T17:12:42.961Z,18.90
2018-10-16T17:15:14.832Z,18.67
2018-10-16T17:17:45.433Z,18.43
2018-10-16T17:20:14.874Z,20.40
2018-10-16T17:22:44.069Z,20.30
2018-10-16T17:25:14.693Z,18.87
2018-10-16T17:27:44.889Z,19.77
2018-10-16T17:30:15.775Z,19.50
2018-10-16T17:32:45.449Z,20.93
2018-10-16T17:35:15.380Z,20.77
2018-10-16T17:37:44.945Z,19.57
2018-10-16T17:40:15.620Z,18.33
2018-10-16T17:42:45.493Z,21.10
2018-10-16T17:48:10.699Z,18.77
2018-10-16T17:50:47.120Z,19.60
2018-10-16T17:53:16.905Z,13.83
2018-10-16T17:55:46.062Z,12.77
2018-10-16T17:58:15.134Z,13.27
2018-10-16T18:00:44.437Z,16.30
2018-10-16T18:03:13.928Z,22.03
2018-10-16T18:05:43.433Z,20.33
2018-10-16T18:08:12.862Z,18.80
2018-10-16T18:10:42.217Z,20.13
2018-10-16T18:13:12.891Z,19.03
2018-10-16T18:15:42.257Z,18.00
2018-10-16T18:18:11.833Z,17.53
2018-10-16T18:20:41.134Z,22.13
2018-10-16T18:23:10.417Z,18.90
2018-10-16T18:25:39.625Z,16.77
2018-10-16T18:28:08.810Z,19.73
2018-10-16T18:30:38.129Z,22.63
2018-10-16T18:33:07.468Z,19.33
2018-10-16T18:35:36.714Z,16.60
2018-10-16T18:38:06.289Z,16.97
2018-10-16T18:40:35.613Z,18.20
2018-10-16T18:43:04.730Z,18.97
2018-10-16T18:45:34.024Z,21.10
2018-10-16T18:48:03.114Z,12.70
2018-10-16T18:50:32.315Z,8.37
2018-10-16T18:53:01.733Z,5.37
2018-10-16T18:55:30.918Z,5.93
2018-10-16T18:57:59.994Z,4.70
2018-10-16T19:00:29.474Z,4.10
2018-10-16T19:02:58.825Z,4.40
2018-10-16T19:05:28.202Z,4.27
2018-10-16T19:07:57.580Z,4.07
2018-10-16T19:10:26.808Z,3.57
2018-10-16T19:12:56.013Z,3.73
2018-10-16T19:15:25.443Z,3.70
2018-10-16T19:17:54.702Z,3.27
2018-10-16T19:20:24.005Z,3.70
2018-10-16T19:22:53.372Z,3.50
2018-10-16T19:25:22.603Z,3.60
2018-10-16T19:27:51.810Z,4.10
2018-10-16T19:30:21.281Z,3.73
2018-10-16T19:32:50.383Z,3.93
2018-10-16T19:35:19.473Z,4.50
2018-10-16T19:37:49.059Z,5.27
2018-10-16T19:40:18.655Z,6.43
2018-10-16T19:42:47.883Z,8.40
2018-10-16T19:45:17.422Z,7.40
2018-10-16T19:47:46.882Z,6.27
2018-10-16T19:50:16.177Z,5.47
2018-10-16T19:52:45.392Z,5.90
2018-10-16T19:55:14.571Z,6.00
2018-10-16T19:57:43.777Z,7.47
2018-10-16T20:00:13.265Z,7.60
2018-10-16T20:02:42.674Z,6.50
2018-10-16T20:05:11.973Z,6.50
2018-10-16T20:07:41.597Z,7.50
2018-10-16T20:10:11.681Z,7.40
2018-10-16T20:12:42.273Z,8.03
2018-10-16T20:15:12.521Z,15.97
2018-10-16T20:17:41.837Z,20.47
2018-10-16T20:20:12.359Z,17.63
2018-10-16T20:22:42.405Z,14.50
2018-10-16T20:25:11.945Z,8.67
2018-10-16T20:27:41.202Z,5.30
2018-10-16T20:30:11.206Z,5.33
2018-10-16T20:32:40.518Z,6.03
2018-10-16T20:35:09.637Z,6.00
2018-10-16T20:37:39.137Z,4.60
2018-10-16T20:40:08.352Z,4.97
2018-10-16T20:42:38.031Z,5.03
2018-10-16T20:45:07.998Z,5.07
2018-10-16T20:47:37.845Z,5.40
2018-10-16T20:50:07.843Z,4.50
2018-10-16T20:52:37.077Z,4.70
2018-10-16T20:55:06.823Z,4.77
2018-10-16T20:57:37.874Z,5.07
2018-10-16T21:00:08.165Z,5.27
2018-10-16T21:02:37.808Z,5.77
2018-10-16T21:05:08.367Z,5.03
2018-10-16T21:07:37.945Z,5.00
2018-10-16T21:10:07.793Z,4.33
2018-10-16T21:12:36.993Z,5.03
2018-10-16T21:15:07.375Z,4.43
2018-10-16T21:17:36.545Z,5.07
2018-10-16T21:20:06.480Z,5.10
2018-10-16T21:22:35.789Z,4.17
2018-10-16T21:25:05.093Z,4.27
2018-10-16T21:27:34.453Z,3.73
2018-10-16T21:30:03.629Z,13.40
2018-10-16T21:32:32.831Z,12.83
2018-10-16T21:35:02.192Z,12.17
2018-10-16T21:37:31.471Z,13.07
2018-10-16T21:40:00.798Z,12.63
2018-10-16T21:42:29.946Z,12.03
2018-10-16T21:44:59.074Z,12.90
2018-10-16T21:47:28.245Z,11.80
2018-10-16T21:49:57.425Z,11.60
2018-10-16T21:52:26.758Z,10.80
2018-10-16T21:54:55.938Z,10.87
2018-10-16T21:57:25.317Z,10.50
2018-10-16T21:59:54.969Z,10.47
2018-10-16T22:02:29.241Z,9.43
2018-10-16T22:04:58.711Z,9.10
2018-10-16T22:07:28.074Z,8.07
2018-10-16T22:09:57.157Z,8.10
2018-10-16T22:12:26.305Z,7.83
2018-10-16T22:14:55.551Z,7.43
2018-10-16T22:17:24.749Z,8.00
2018-10-16T22:19:54.085Z,7.63
2018-10-16T22:22:23.454Z,7.77
2018-10-16T22:24:52.780Z,8.03
2018-10-16T22:27:22.184Z,7.37
2018-10-16T22:29:51.349Z,8.07
2018-10-16T22:32:20.509Z,9.03
2018-10-16T22:34:49.698Z,8.60
2018-10-16T22:37:18.842Z,8.90
2018-10-16T22:39:48.034Z,8.60
2018-10-16T22:42:17.554Z,8.87
2018-10-16T22:44:46.919Z,8.90
2018-10-16T22:47:16.169Z,11.43
2018-10-16T22:49:45.790Z,8.83
2018-10-16T22:52:15.147Z,8.53
2018-10-16T22:54:44.251Z,10.40
2018-10-16T22:57:13.653Z,8.70
2018-10-16T22:59:43.421Z,8.33
2018-10-16T23:02:12.612Z,8.80
2018-10-16T23:04:41.806Z,9.40
2018-10-16T23:07:11.183Z,9.50
2018-10-16T23:09:40.643Z,10.60
2018-10-16T23:12:09.977Z,10.37
2018-10-16T23:14:39.142Z,11.57
2018-10-16T23:17:08.789Z,10.13
2018-10-16T23:19:38.110Z,9.90
2018-10-16T23:22:07.450Z,10.43
2018-10-16T23:24:37.089Z,10.20
2018-10-16T23:27:06.941Z,10.50
2018-10-16T23:29:36.181Z,10.17
2018-10-16T23:32:05.694Z,9.10
2018-10-16T23:34:35.057Z,9.20
2018-10-16T23:37:04.340Z,9.97
2018-10-16T23:39:33.497Z,9.20
2018-10-16T23:42:02.742Z,8.13
2018-10-16T23:44:31.973Z,9.03
2018-10-16T23:47:01.205Z,7.70
2018-10-16T23:49:30.809Z,7.53
2018-10-16T23:51:59.989Z,7.30
2018-10-16T23:54:29.273Z,7.20
2018-10-16T23:56:58.649Z,19.07
2018-10-16T23:59:28.283Z,16.00
